Hovedside
METAR-TAF:

METAR-TAF

Lufthavner :

Lille, Frankrike

breddegrad: 50-34N, lengdegrad: 003-06E, høyde over havet: 48 m

Gjeldene værobservasjon

Denne rapporten ble laget for 29 minutter siden, klokken 14:00 UTC
Vind 9 kt fra Øst-nordøst
Temperatur 5°C
Luftfuktighet 81%
Trykk 1028 hPa
Sikt: 9000 m
Overskyet i en høyde av 1500 ft

METAR: LFQQ 231400Z AUTO 06009KT 9000 OVC015 05/02 Q1028 TEMPO BKN012

Tid: 15:29 (14:29 UTC)

Varsel

Denne rapporten ble laget for 3 timer og 29 minutter siden, klokken 11:00 UTC
Varsel gyldig fra 23. klokken 12 UTC til 24. klokken 18 UTC
Vind 8 kt fra Øst-nordøst
Sikt: 5000 m
Overskyet i en høyde av 500 ft
dis
Midlertidig
fra 23. klokken 12 UTC til 23. klokken 18 UTC
Sikt: 7000 m
Brutte skyer i en høyde av 1200 ft
Sannsynlighet 40% :
Midlertidig
fra 24. klokken 05 UTC til 24. klokken 09 UTC
Sikt: 2000 m
Overskyet i en høyde av 300 ft
dis

TAF: LFQQ 231100Z 2312/2418 07008KT 5000 BR OVC005 TEMPO 2312/2318 7000 NSW BKN012 PROB40 TEMPO 2405/2409 2000 BR OVC003

Værobservasjoner og værvarsel for over 4000 flyplasser (METAR- og TAF-rapporter).

Tilgjengelige stasjoner er representert av de røde og gule prikkene på kartet.

Hold musepekeren over prikken for å se navnet på stasjonen.

Klikk så for å se værobservasjoner og -varsler.

For å forandre kartet kan du klikke på den grønne knappen med svart kryss for å zoome inn, på den grønne knappen med strek for å zoome ut, eller på de grønne pilene for å se tilstøtende kart.


METAR-TAF: